sensor_id;sensor_type;location;lat;lon;timestamp;P1;durP1;ratioP1;P2;durP2;ratioP2
25391;SDS011;13329;48.402;11.718;2022-09-21T00:00:26;1.25;;;0.95;;
25391;SDS011;13329;48.402;11.718;2022-09-21T00:02:54;2.97;;;1.33;;
25391;SDS011;13329;48.402;11.718;2022-09-21T00:05:19;1.55;;;1.00;;
25391;SDS011;13329;48.402;11.718;2022-09-21T00:07:44;2.67;;;1.10;;
25391;SDS011;13329;48.402;11.718;2022-09-21T00:10:10;2.13;;;1.23;;
25391;SDS011;13329;48.402;11.718;2022-09-21T00:12:35;1.30;;;1.00;;
25391;SDS011;13329;48.402;11.718;2022-09-21T00:15:03;1.75;;;0.98;;
25391;SDS011;13329;48.402;11.718;2022-09-21T00:17:28;1.95;;;0.90;;
25391;SDS011;13329;48.402;11.718;2022-09-21T00:19:54;2.28;;;0.90;;
25391;SDS011;13329;48.402;11.718;2022-09-21T00:22:19;2.03;;;1.07;;
25391;SDS011;13329;48.402;11.718;2022-09-21T00:24:44;1.30;;;1.00;;
25391;SDS011;13329;48.402;11.718;2022-09-21T00:27:09;2.73;;;1.20;;
25391;SDS011;13329;48.402;11.718;2022-09-21T00:29:34;1.97;;;1.17;;
25391;SDS011;13329;48.402;11.718;2022-09-21T00:31:59;1.63;;;1.20;;
25391;SDS011;13329;48.402;11.718;2022-09-21T00:34:26;1.70;;;1.00;;
25391;SDS011;13329;48.402;11.718;2022-09-21T00:36:51;2.27;;;1.17;;
25391;SDS011;13329;48.402;11.718;2022-09-21T00:39:17;1.48;;;0.98;;
25391;SDS011;13329;48.402;11.718;2022-09-21T00:41:42;2.20;;;1.20;;
25391;SDS011;13329;48.402;11.718;2022-09-21T00:46:52;3.50;;;1.25;;
25391;SDS011;13329;48.402;11.718;2022-09-21T00:49:18;5.05;;;1.00;;
25391;SDS011;13329;48.402;11.718;2022-09-21T00:51:44;1.33;;;0.95;;
25391;SDS011;13329;48.402;11.718;2022-09-21T00:54:11;1.27;;;0.80;;
25391;SDS011;13329;48.402;11.718;2022-09-21T00:56:39;1.27;;;1.02;;
25391;SDS011;13329;48.402;11.718;2022-09-21T00:59:04;1.73;;;1.00;;
25391;SDS011;13329;48.402;11.718;2022-09-21T01:01:29;1.48;;;0.90;;
25391;SDS011;13329;48.402;11.718;2022-09-21T01:03:55;2.60;;;1.27;;
25391;SDS011;13329;48.402;11.718;2022-09-21T01:06:21;2.13;;;1.20;;
25391;SDS011;13329;48.402;11.718;2022-09-21T01:08:49;1.52;;;1.10;;
25391;SDS011;13329;48.402;11.718;2022-09-21T01:22:09;1.83;;;1.00;;
25391;SDS011;13329;48.402;11.718;2022-09-21T01:27:26;1.73;;;0.93;;
25391;SDS011;13329;48.402;11.718;2022-09-21T01:32:25;1.52;;;0.90;;
25391;SDS011;13329;48.402;11.718;2022-09-21T01:35:06;0.80;;;0.80;;
25391;SDS011;13329;48.402;11.718;2022-09-21T01:39:59;2.50;;;0.82;;
25391;SDS011;13329;48.402;11.718;2022-09-21T01:42:26;1.63;;;1.10;;
25391;SDS011;13329;48.402;11.718;2022-09-21T01:44:52;2.47;;;1.10;;
25391;SDS011;13329;48.402;11.718;2022-09-21T01:47:18;1.88;;;0.90;;
25391;SDS011;13329;48.402;11.718;2022-09-21T01:49:45;1.75;;;1.10;;
25391;SDS011;13329;48.402;11.718;2022-09-21T01:55:07;1.30;;;1.00;;
25391;SDS011;13329;48.402;11.718;2022-09-21T01:57:34;2.50;;;0.90;;
25391;SDS011;13329;48.402;11.718;2022-09-21T02:00:02;2.40;;;1.05;;
25391;SDS011;13329;48.402;11.718;2022-09-21T02:04:57;1.75;;;0.98;;
25391;SDS011;13329;48.402;11.718;2022-09-21T02:07:23;1.30;;;0.80;;
25391;SDS011;13329;48.402;11.718;2022-09-21T02:09:49;0.87;;;0.83;;
25391;SDS011;13329;48.402;11.718;2022-09-21T02:12:14;1.30;;;0.85;;
25391;SDS011;13329;48.402;11.718;2022-09-21T02:14:39;1.10;;;0.87;;
25391;SDS011;13329;48.402;11.718;2022-09-21T02:22:12;1.48;;;1.00;;
25391;SDS011;13329;48.402;11.718;2022-09-21T02:24:43;1.33;;;0.93;;
25391;SDS011;13329;48.402;11.718;2022-09-21T02:32:05;3.13;;;0.95;;
25391;SDS011;13329;48.402;11.718;2022-09-21T02:34:41;1.77;;;0.95;;
25391;SDS011;13329;48.402;11.718;2022-09-21T02:39:38;2.47;;;1.25;;
25391;SDS011;13329;48.402;11.718;2022-09-21T02:42:11;1.27;;;0.90;;
25391;SDS011;13329;48.402;11.718;2022-09-21T02:47:52;1.75;;;1.02;;
25391;SDS011;13329;48.402;11.718;2022-09-21T02:49:52;2.03;;;1.33;;
25391;SDS011;13329;48.402;11.718;2022-09-21T02:52:18;1.13;;;0.90;;
25391;SDS011;13329;48.402;11.718;2022-09-21T02:54:46;1.23;;;0.93;;
25391;SDS011;13329;48.402;11.718;2022-09-21T02:57:13;1.40;;;1.17;;
25391;SDS011;13329;48.402;11.718;2022-09-21T02:59:40;4.30;;;1.25;;
25391;SDS011;13329;48.402;11.718;2022-09-21T03:02:05;2.47;;;1.27;;
25391;SDS011;13329;48.402;11.718;2022-09-21T03:04:31;2.40;;;1.13;;
25391;SDS011;13329;48.402;11.718;2022-09-21T03:06:56;1.77;;;1.40;;
25391;SDS011;13329;48.402;11.718;2022-09-21T03:09:21;3.30;;;1.40;;
25391;SDS011;13329;48.402;11.718;2022-09-21T03:11:48;1.92;;;1.10;;
25391;SDS011;13329;48.402;11.718;2022-09-21T03:14:14;1.13;;;1.00;;
25391;SDS011;13329;48.402;11.718;2022-09-21T03:16:39;1.48;;;1.15;;
25391;SDS011;13329;48.402;11.718;2022-09-21T03:19:04;1.93;;;1.20;;
25391;SDS011;13329;48.402;11.718;2022-09-21T03:21:30;3.47;;;1.30;;
25391;SDS011;13329;48.402;11.718;2022-09-21T03:23:55;1.67;;;0.90;;
25391;SDS011;13329;48.402;11.718;2022-09-21T03:26:20;2.10;;;1.00;;
25391;SDS011;13329;48.402;11.718;2022-09-21T03:28:47;1.73;;;1.05;;
25391;SDS011;13329;48.402;11.718;2022-09-21T03:31:12;1.13;;;0.90;;
25391;SDS011;13329;48.402;11.718;2022-09-21T03:33:37;1.17;;;0.82;;
25391;SDS011;13329;48.402;11.718;2022-09-21T03:36:02;2.00;;;1.20;;
25391;SDS011;13329;48.402;11.718;2022-09-21T03:38:28;0.98;;;0.88;;
25391;SDS011;13329;48.402;11.718;2022-09-21T03:40:53;2.42;;;1.13;;
25391;SDS011;13329;48.402;11.718;2022-09-21T03:43:21;1.60;;;1.15;;
25391;SDS011;13329;48.402;11.718;2022-09-21T03:45:47;2.75;;;1.20;;
25391;SDS011;13329;48.402;11.718;2022-09-21T03:48:12;2.70;;;1.33;;
25391;SDS011;13329;48.402;11.718;2022-09-21T03:50:38;1.50;;;1.08;;
25391;SDS011;13329;48.402;11.718;2022-09-21T03:53:03;2.97;;;1.10;;
25391;SDS011;13329;48.402;11.718;2022-09-21T03:55:29;3.28;;;1.13;;
25391;SDS011;13329;48.402;11.718;2022-09-21T03:57:55;1.40;;;1.13;;
25391;SDS011;13329;48.402;11.718;2022-09-21T04:00:20;4.30;;;1.70;;
25391;SDS011;13329;48.402;11.718;2022-09-21T04:02:45;2.90;;;1.10;;
25391;SDS011;13329;48.402;11.718;2022-09-21T04:05:11;2.77;;;1.60;;
25391;SDS011;13329;48.402;11.718;2022-09-21T04:07:38;3.45;;;0.98;;
25391;SDS011;13329;48.402;11.718;2022-09-21T04:10:05;2.55;;;1.30;;
25391;SDS011;13329;48.402;11.718;2022-09-21T04:12:31;1.50;;;1.27;;
25391;SDS011;13329;48.402;11.718;2022-09-21T04:14:56;2.63;;;1.13;;
25391;SDS011;13329;48.402;11.718;2022-09-21T04:17:22;1.48;;;1.10;;
25391;SDS011;13329;48.402;11.718;2022-09-21T04:19:47;1.93;;;1.10;;
25391;SDS011;13329;48.402;11.718;2022-09-21T04:22:12;1.90;;;1.20;;
25391;SDS011;13329;48.402;11.718;2022-09-21T04:24:37;1.83;;;1.23;;
25391;SDS011;13329;48.402;11.718;2022-09-21T04:27:04;2.75;;;1.30;;
25391;SDS011;13329;48.402;11.718;2022-09-21T04:29:30;2.53;;;1.20;;
25391;SDS011;13329;48.402;11.718;2022-09-21T04:31:55;3.50;;;1.40;;
25391;SDS011;13329;48.402;11.718;2022-09-21T04:34:22;1.70;;;1.10;;
25391;SDS011;13329;48.402;11.718;2022-09-21T04:36:47;1.47;;;1.10;;
25391;SDS011;13329;48.402;11.718;2022-09-21T04:39:12;2.95;;;1.48;;
25391;SDS011;13329;48.402;11.718;2022-09-21T04:41:37;2.07;;;1.20;;
25391;SDS011;13329;48.402;11.718;2022-09-21T04:44:02;2.58;;;1.30;;
25391;SDS011;13329;48.402;11.718;2022-09-21T04:46:28;1.52;;;1.00;;
25391;SDS011;13329;48.402;11.718;2022-09-21T04:48:53;2.05;;;1.30;;
25391;SDS011;13329;48.402;11.718;2022-09-21T04:51:18;3.13;;;1.00;;
25391;SDS011;13329;48.402;11.718;2022-09-21T04:53:44;2.10;;;1.38;;
25391;SDS011;13329;48.402;11.718;2022-09-21T04:56:10;2.90;;;1.27;;
25391;SDS011;13329;48.402;11.718;2022-09-21T04:58:37;2.70;;;1.40;;
25391;SDS011;13329;48.402;11.718;2022-09-21T05:01:02;2.65;;;1.35;;
25391;SDS011;13329;48.402;11.718;2022-09-21T05:03:28;5.15;;;0.90;;
25391;SDS011;13329;48.402;11.718;2022-09-21T05:05:54;1.80;;;1.17;;
25391;SDS011;13329;48.402;11.718;2022-09-21T05:08:21;2.50;;;1.25;;
25391;SDS011;13329;48.402;11.718;2022-09-21T05:11:06;1.50;;;1.00;;
25391;SDS011;13329;48.402;11.718;2022-09-21T05:13:32;2.65;;;1.58;;
25391;SDS011;13329;48.402;11.718;2022-09-21T05:15:57;2.43;;;1.40;;
25391;SDS011;13329;48.402;11.718;2022-09-21T05:18:22;2.73;;;1.60;;
25391;SDS011;13329;48.402;11.718;2022-09-21T05:20:54;2.83;;;1.60;;
25391;SDS011;13329;48.402;11.718;2022-09-21T05:23:20;1.17;;;1.07;;
25391;SDS011;13329;48.402;11.718;2022-09-21T05:25:45;6.70;;;1.70;;
25391;SDS011;13329;48.402;11.718;2022-09-21T05:28:10;1.57;;;1.23;;
25391;SDS011;13329;48.402;11.718;2022-09-21T05:30:35;7.80;;;1.40;;
25391;SDS011;13329;48.402;11.718;2022-09-21T05:33:01;2.40;;;1.60;;
25391;SDS011;13329;48.402;11.718;2022-09-21T05:35:34;2.15;;;1.17;;
25391;SDS011;13329;48.402;11.718;2022-09-21T05:38:11;5.28;;;1.40;;
25391;SDS011;13329;48.402;11.718;2022-09-21T05:40:37;5.43;;;1.40;;
25391;SDS011;13329;48.402;11.718;2022-09-21T05:43:03;2.08;;;1.45;;
25391;SDS011;13329;48.402;11.718;2022-09-21T05:45:28;2.22;;;1.40;;
25391;SDS011;13329;48.402;11.718;2022-09-21T05:51:05;2.05;;;1.23;;
25391;SDS011;13329;48.402;11.718;2022-09-21T05:59:09;2.50;;;1.30;;
25391;SDS011;13329;48.402;11.718;2022-09-21T06:01:50;3.55;;;1.48;;
25391;SDS011;13329;48.402;11.718;2022-09-21T06:06:44;4.13;;;1.50;;
25391;SDS011;13329;48.402;11.718;2022-09-21T06:09:09;3.60;;;1.70;;
25391;SDS011;13329;48.402;11.718;2022-09-21T06:11:34;2.30;;;1.50;;
25391;SDS011;13329;48.402;11.718;2022-09-21T06:14:00;3.72;;;1.70;;
25391;SDS011;13329;48.402;11.718;2022-09-21T06:16:26;4.28;;;1.80;;
25391;SDS011;13329;48.402;11.718;2022-09-21T06:21:25;5.57;;;2.42;;
25391;SDS011;13329;48.402;11.718;2022-09-21T06:23:50;10.07;;;3.40;;
25391;SDS011;13329;48.402;11.718;2022-09-21T06:26:15;4.60;;;2.43;;
25391;SDS011;13329;48.402;11.718;2022-09-21T06:28:41;6.65;;;3.60;;
25391;SDS011;13329;48.402;11.718;2022-09-21T06:31:06;5.90;;;3.30;;
25391;SDS011;13329;48.402;11.718;2022-09-21T06:33:31;6.05;;;3.28;;
25391;SDS011;13329;48.402;11.718;2022-09-21T06:35:59;5.03;;;2.83;;
25391;SDS011;13329;48.402;11.718;2022-09-21T06:38:24;5.30;;;2.80;;
25391;SDS011;13329;48.402;11.718;2022-09-21T06:40:50;8.05;;;2.80;;
25391;SDS011;13329;48.402;11.718;2022-09-21T06:43:16;5.35;;;2.67;;
25391;SDS011;13329;48.402;11.718;2022-09-21T06:45:41;5.28;;;3.30;;
25391;SDS011;13329;48.402;11.718;2022-09-21T06:48:06;8.33;;;3.40;;
25391;SDS011;13329;48.402;11.718;2022-09-21T06:50:32;7.13;;;3.63;;
25391;SDS011;13329;48.402;11.718;2022-09-21T06:53:00;8.38;;;3.78;;
25391;SDS011;13329;48.402;11.718;2022-09-21T06:55:26;6.55;;;3.97;;
25391;SDS011;13329;48.402;11.718;2022-09-21T06:57:51;9.55;;;3.70;;
25391;SDS011;13329;48.402;11.718;2022-09-21T07:00:16;19.47;;;5.40;;
25391;SDS011;13329;48.402;11.718;2022-09-21T07:02:42;11.13;;;4.40;;
25391;SDS011;13329;48.402;11.718;2022-09-21T07:05:08;10.68;;;4.55;;
25391;SDS011;13329;48.402;11.718;2022-09-21T07:07:33;9.88;;;5.00;;
25391;SDS011;13329;48.402;11.718;2022-09-21T07:10:00;11.05;;;5.20;;
25391;SDS011;13329;48.402;11.718;2022-09-21T07:12:29;14.57;;;6.65;;
25391;SDS011;13329;48.402;11.718;2022-09-21T07:14:57;11.18;;;4.45;;
25391;SDS011;13329;48.402;11.718;2022-09-21T07:17:22;6.27;;;3.50;;
25391;SDS011;13329;48.402;11.718;2022-09-21T07:19:48;5.35;;;3.33;;
25391;SDS011;13329;48.402;11.718;2022-09-21T07:22:14;7.22;;;3.28;;
25391;SDS011;13329;48.402;11.718;2022-09-21T07:24:39;6.47;;;3.30;;
25391;SDS011;13329;48.402;11.718;2022-09-21T07:27:04;5.50;;;3.07;;
25391;SDS011;13329;48.402;11.718;2022-09-21T07:29:30;4.63;;;2.80;;
25391;SDS011;13329;48.402;11.718;2022-09-21T07:31:55;6.13;;;2.70;;
25391;SDS011;13329;48.402;11.718;2022-09-21T07:34:20;4.17;;;2.20;;
25391;SDS011;13329;48.402;11.718;2022-09-21T07:36:45;5.53;;;2.30;;
25391;SDS011;13329;48.402;11.718;2022-09-21T07:39:10;5.00;;;1.67;;
25391;SDS011;13329;48.402;11.718;2022-09-21T07:41:36;3.97;;;1.67;;
25391;SDS011;13329;48.402;11.718;2022-09-21T07:44:02;5.97;;;2.30;;
25391;SDS011;13329;48.402;11.718;2022-09-21T07:46:27;9.02;;;3.15;;
25391;SDS011;13329;48.402;11.718;2022-09-21T07:48:53;3.67;;;1.57;;
25391;SDS011;13329;48.402;11.718;2022-09-21T07:51:18;3.55;;;1.25;;
25391;SDS011;13329;48.402;11.718;2022-09-21T07:53:43;1.60;;;1.00;;
25391;SDS011;13329;48.402;11.718;2022-09-21T07:56:10;19.70;;;7.50;;
25391;SDS011;13329;48.402;11.718;2022-09-21T07:58:36;13.75;;;4.60;;
25391;SDS011;13329;48.402;11.718;2022-09-21T08:01:20;3.90;;;1.55;;
25391;SDS011;13329;48.402;11.718;2022-09-21T08:03:47;15.50;;;5.33;;
25391;SDS011;13329;48.402;11.718;2022-09-21T08:06:12;15.63;;;4.03;;
25391;SDS011;13329;48.402;11.718;2022-09-21T08:08:38;5.30;;;1.83;;
25391;SDS011;13329;48.402;11.718;2022-09-21T08:11:06;10.98;;;3.70;;
25391;SDS011;13329;48.402;11.718;2022-09-21T08:13:31;16.42;;;5.97;;
25391;SDS011;13329;48.402;11.718;2022-09-21T08:15:57;6.85;;;2.30;;
25391;SDS011;13329;48.402;11.718;2022-09-21T08:18:23;3.17;;;1.52;;
25391;SDS011;13329;48.402;11.718;2022-09-21T08:20:52;3.57;;;1.07;;
25391;SDS011;13329;48.402;11.718;2022-09-21T08:23:18;2.75;;;1.13;;
25391;SDS011;13329;48.402;11.718;2022-09-21T08:25:43;3.23;;;0.97;;
25391;SDS011;13329;48.402;11.718;2022-09-21T08:28:08;2.23;;;0.80;;
25391;SDS011;13329;48.402;11.718;2022-09-21T08:30:33;1.37;;;0.90;;
25391;SDS011;13329;48.402;11.718;2022-09-21T08:32:58;1.20;;;0.80;;
25391;SDS011;13329;48.402;11.718;2022-09-21T08:35:24;5.10;;;1.08;;
25391;SDS011;13329;48.402;11.718;2022-09-21T08:37:51;2.53;;;0.90;;
25391;SDS011;13329;48.402;11.718;2022-09-21T08:40:17;1.58;;;1.10;;
25391;SDS011;13329;48.402;11.718;2022-09-21T08:42:47;4.03;;;1.00;;
25391;SDS011;13329;48.402;11.718;2022-09-21T08:45:16;2.17;;;1.15;;
25391;SDS011;13329;48.402;11.718;2022-09-21T08:47:58;1.38;;;0.70;;
25391;SDS011;13329;48.402;11.718;2022-09-21T08:52:49;2.20;;;1.30;;
25391;SDS011;13329;48.402;11.718;2022-09-21T08:55:17;1.75;;;0.60;;
25391;SDS011;13329;48.402;11.718;2022-09-21T08:57:43;2.30;;;0.80;;
25391;SDS011;13329;48.402;11.718;2022-09-21T09:00:15;1.17;;;0.60;;
25391;SDS011;13329;48.402;11.718;2022-09-21T09:08:03;2.25;;;0.40;;
25391;SDS011;13329;48.402;11.718;2022-09-21T09:18:08;1.20;;;0.57;;
25391;SDS011;13329;48.402;11.718;2022-09-21T09:20:46;0.93;;;0.60;;
25391;SDS011;13329;48.402;11.718;2022-09-21T09:24:14;1.10;;;0.50;;
25391;SDS011;13329;48.402;11.718;2022-09-21T09:28:41;2.05;;;0.50;;
25391;SDS011;13329;48.402;11.718;2022-09-21T09:31:17;0.57;;;0.38;;
25391;SDS011;13329;48.402;11.718;2022-09-21T09:33:45;3.88;;;0.40;;
25391;SDS011;13329;48.402;11.718;2022-09-21T09:36:13;0.68;;;0.40;;
25391;SDS011;13329;48.402;11.718;2022-09-21T09:39:23;2.60;;;0.30;;
25391;SDS011;13329;48.402;11.718;2022-09-21T09:49:27;0.77;;;0.30;;
25391;SDS011;13329;48.402;11.718;2022-09-21T09:51:55;0.90;;;0.45;;
25391;SDS011;13329;48.402;11.718;2022-09-21T09:54:21;0.52;;;0.40;;
25391;SDS011;13329;48.402;11.718;2022-09-21T09:56:48;0.65;;;0.40;;
25391;SDS011;13329;48.402;11.718;2022-09-21T09:59:24;0.60;;;0.40;;
25391;SDS011;13329;48.402;11.718;2022-09-21T10:02:05;0.50;;;0.40;;
25391;SDS011;13329;48.402;11.718;2022-09-21T10:04:30;0.60;;;0.50;;
25391;SDS011;13329;48.402;11.718;2022-09-21T10:06:57;0.87;;;0.60;;
25391;SDS011;13329;48.402;11.718;2022-09-21T10:09:23;2.67;;;0.57;;
25391;SDS011;13329;48.402;11.718;2022-09-21T10:11:49;1.65;;;0.73;;
25391;SDS011;13329;48.402;11.718;2022-09-21T10:14:17;1.20;;;0.70;;
25391;SDS011;13329;48.402;11.718;2022-09-21T10:16:43;2.25;;;0.80;;
25391;SDS011;13329;48.402;11.718;2022-09-21T10:19:15;2.17;;;0.70;;
25391;SDS011;13329;48.402;11.718;2022-09-21T10:21:41;1.08;;;0.50;;
25391;SDS011;13329;48.402;11.718;2022-09-21T10:26:46;2.15;;;0.80;;
25391;SDS011;13329;48.402;11.718;2022-09-21T10:29:16;1.25;;;0.52;;
25391;SDS011;13329;48.402;11.718;2022-09-21T10:31:55;2.00;;;0.70;;
25391;SDS011;13329;48.402;11.718;2022-09-21T10:34:24;0.60;;;0.60;;
25391;SDS011;13329;48.402;11.718;2022-09-21T10:36:52;1.00;;;0.70;;
25391;SDS011;13329;48.402;11.718;2022-09-21T10:39:21;0.57;;;0.40;;
25391;SDS011;13329;48.402;11.718;2022-09-21T10:41:57;1.85;;;0.80;;
25391;SDS011;13329;48.402;11.718;2022-09-21T10:44:28;2.13;;;0.68;;
25391;SDS011;13329;48.402;11.718;2022-09-21T10:46:57;0.55;;;0.40;;
25391;SDS011;13329;48.402;11.718;2022-09-21T10:49:25;1.45;;;0.60;;
25391;SDS011;13329;48.402;11.718;2022-09-21T10:51:53;0.80;;;0.50;;
25391;SDS011;13329;48.402;11.718;2022-09-21T10:54:21;1.85;;;0.50;;
25391;SDS011;13329;48.402;11.718;2022-09-21T10:56:51;1.92;;;0.88;;
25391;SDS011;13329;48.402;11.718;2022-09-21T10:59:32;1.00;;;0.77;;
25391;SDS011;13329;48.402;11.718;2022-09-21T11:01:58;3.17;;;0.77;;
25391;SDS011;13329;48.402;11.718;2022-09-21T11:04:38;2.58;;;0.90;;
25391;SDS011;13329;48.402;11.718;2022-09-21T11:10:09;3.10;;;0.90;;
25391;SDS011;13329;48.402;11.718;2022-09-21T11:15:10;2.38;;;0.80;;
25391;SDS011;13329;48.402;11.718;2022-09-21T11:20:19;1.95;;;1.10;;
25391;SDS011;13329;48.402;11.718;2022-09-21T11:22:50;1.95;;;0.70;;
25391;SDS011;13329;48.402;11.718;2022-09-21T11:31:00;2.35;;;0.70;;
25391;SDS011;13329;48.402;11.718;2022-09-21T11:36:18;0.77;;;0.60;;
25391;SDS011;13329;48.402;11.718;2022-09-21T11:38:55;5.68;;;1.00;;
25391;SDS011;13329;48.402;11.718;2022-09-21T11:46:26;1.40;;;0.70;;
25391;SDS011;13329;48.402;11.718;2022-09-21T11:48:58;1.92;;;0.80;;
25391;SDS011;13329;48.402;11.718;2022-09-21T11:51:37;1.50;;;0.75;;
25391;SDS011;13329;48.402;11.718;2022-09-21T11:56:47;2.55;;;1.02;;
25391;SDS011;13329;48.402;11.718;2022-09-21T11:59:27;1.00;;;0.60;;
25391;SDS011;13329;48.402;11.718;2022-09-21T12:12:20;2.80;;;0.70;;
25391;SDS011;13329;48.402;11.718;2022-09-21T12:14:51;2.42;;;0.63;;
25391;SDS011;13329;48.402;11.718;2022-09-21T12:22:41;1.27;;;0.65;;
25391;SDS011;13329;48.402;11.718;2022-09-21T12:25:12;2.35;;;0.52;;
25391;SDS011;13329;48.402;11.718;2022-09-21T12:27:42;2.30;;;0.68;;
25391;SDS011;13329;48.402;11.718;2022-09-21T12:30:26;1.13;;;0.47;;
25391;SDS011;13329;48.402;11.718;2022-09-21T12:38:32;4.40;;;0.77;;
25391;SDS011;13329;48.402;11.718;2022-09-21T12:45:56;2.38;;;0.82;;
25391;SDS011;13329;48.402;11.718;2022-09-21T12:48:30;1.48;;;0.70;;
25391;SDS011;13329;48.402;11.718;2022-09-21T12:53:25;1.40;;;0.75;;
25391;SDS011;13329;48.402;11.718;2022-09-21T12:55:55;4.38;;;0.88;;
25391;SDS011;13329;48.402;11.718;2022-09-21T12:58:40;1.25;;;0.68;;
25391;SDS011;13329;48.402;11.718;2022-09-21T13:06:31;3.20;;;0.50;;
25391;SDS011;13329;48.402;11.718;2022-09-21T13:09:02;3.83;;;0.90;;
25391;SDS011;13329;48.402;11.718;2022-09-21T13:11:29;2.55;;;1.00;;
25391;SDS011;13329;48.402;11.718;2022-09-21T13:13:56;2.38;;;0.77;;
25391;SDS011;13329;48.402;11.718;2022-09-21T13:16:27;1.13;;;0.57;;
25391;SDS011;13329;48.402;11.718;2022-09-21T13:18:57;1.63;;;0.70;;
25391;SDS011;13329;48.402;11.718;2022-09-21T13:21:23;3.05;;;0.80;;
25391;SDS011;13329;48.402;11.718;2022-09-21T13:23:55;0.80;;;0.50;;
25391;SDS011;13329;48.402;11.718;2022-09-21T13:26:36;3.60;;;0.80;;
25391;SDS011;13329;48.402;11.718;2022-09-21T13:31:29;2.00;;;0.60;;
25391;SDS011;13329;48.402;11.718;2022-09-21T13:36:39;1.10;;;0.40;;
25391;SDS011;13329;48.402;11.718;2022-09-21T13:41:34;0.85;;;0.50;;
25391;SDS011;13329;48.402;11.718;2022-09-21T13:49:44;0.68;;;0.40;;
25391;SDS011;13329;48.402;11.718;2022-09-21T13:54:50;1.52;;;0.60;;
25391;SDS011;13329;48.402;11.718;2022-09-21T14:00:06;3.13;;;0.60;;
25391;SDS011;13329;48.402;11.718;2022-09-21T14:02:34;0.88;;;0.38;;
25391;SDS011;13329;48.402;11.718;2022-09-21T14:05:08;1.20;;;0.80;;
25391;SDS011;13329;48.402;11.718;2022-09-21T14:07:42;1.77;;;0.45;;
25391;SDS011;13329;48.402;11.718;2022-09-21T14:10:08;0.85;;;0.40;;
25391;SDS011;13329;48.402;11.718;2022-09-21T14:12:38;1.98;;;0.60;;
25391;SDS011;13329;48.402;11.718;2022-09-21T14:17:35;1.65;;;0.50;;
25391;SDS011;13329;48.402;11.718;2022-09-21T14:20:01;1.73;;;0.63;;
25391;SDS011;13329;48.402;11.718;2022-09-21T14:27:40;1.70;;;0.45;;
25391;SDS011;13329;48.402;11.718;2022-09-21T14:30:19;0.55;;;0.40;;
25391;SDS011;13329;48.402;11.718;2022-09-21T14:32:46;0.90;;;0.50;;
25391;SDS011;13329;48.402;11.718;2022-09-21T14:35:19;0.70;;;0.40;;
25391;SDS011;13329;48.402;11.718;2022-09-21T14:37:49;0.43;;;0.40;;
25391;SDS011;13329;48.402;11.718;2022-09-21T14:40:23;1.42;;;0.40;;
25391;SDS011;13329;48.402;11.718;2022-09-21T14:45:15;2.13;;;0.50;;
25391;SDS011;13329;48.402;11.718;2022-09-21T14:50:30;1.58;;;0.60;;
25391;SDS011;13329;48.402;11.718;2022-09-21T14:55:24;0.50;;;0.50;;
25391;SDS011;13329;48.402;11.718;2022-09-21T15:00:38;1.25;;;0.57;;
25391;SDS011;13329;48.402;11.718;2022-09-21T15:05:56;1.05;;;0.35;;
25391;SDS011;13329;48.402;11.718;2022-09-21T15:13:46;0.93;;;0.60;;
25391;SDS011;13329;48.402;11.718;2022-09-21T15:18:41;1.15;;;0.50;;
25391;SDS011;13329;48.402;11.718;2022-09-21T15:21:17;0.98;;;0.63;;
25391;SDS011;13329;48.402;11.718;2022-09-21T15:23:44;2.53;;;0.85;;
25391;SDS011;13329;48.402;11.718;2022-09-21T15:26:12;2.37;;;0.60;;
25391;SDS011;13329;48.402;11.718;2022-09-21T15:28:43;1.02;;;0.35;;
25391;SDS011;13329;48.402;11.718;2022-09-21T15:31:14;0.60;;;0.20;;
25391;SDS011;13329;48.402;11.718;2022-09-21T15:33:39;0.65;;;0.57;;
25391;SDS011;13329;48.402;11.718;2022-09-21T15:36:07;3.75;;;0.52;;
25391;SDS011;13329;48.402;11.718;2022-09-21T15:38:34;0.43;;;0.30;;
25391;SDS011;13329;48.402;11.718;2022-09-21T15:41:00;1.52;;;0.63;;
25391;SDS011;13329;48.402;11.718;2022-09-21T15:43:26;1.48;;;0.40;;
25391;SDS011;13329;48.402;11.718;2022-09-21T15:48:23;0.63;;;0.40;;
25391;SDS011;13329;48.402;11.718;2022-09-21T15:50:52;2.03;;;0.47;;
25391;SDS011;13329;48.402;11.718;2022-09-21T15:53:21;0.70;;;0.40;;
25391;SDS011;13329;48.402;11.718;2022-09-21T15:55:47;0.50;;;0.40;;
25391;SDS011;13329;48.402;11.718;2022-09-21T15:58:23;1.08;;;0.40;;
25391;SDS011;13329;48.402;11.718;2022-09-21T16:00:50;2.25;;;0.50;;
25391;SDS011;13329;48.402;11.718;2022-09-21T16:03:20;2.20;;;0.50;;
25391;SDS011;13329;48.402;11.718;2022-09-21T16:08:18;0.63;;;0.40;;
25391;SDS011;13329;48.402;11.718;2022-09-21T16:10:45;0.57;;;0.32;;
25391;SDS011;13329;48.402;11.718;2022-09-21T16:13:21;1.63;;;0.53;;
25391;SDS011;13329;48.402;11.718;2022-09-21T16:16:06;0.35;;;0.30;;
25391;SDS011;13329;48.402;11.718;2022-09-21T16:18:41;0.60;;;0.50;;
25391;SDS011;13329;48.402;11.718;2022-09-21T16:21:18;3.58;;;0.40;;
25391;SDS011;13329;48.402;11.718;2022-09-21T16:23:44;1.50;;;0.60;;
25391;SDS011;13329;48.402;11.718;2022-09-21T16:26:34;2.08;;;0.85;;
25391;SDS011;13329;48.402;11.718;2022-09-21T16:29:15;0.40;;;0.32;;
25391;SDS011;13329;48.402;11.718;2022-09-21T16:31:40;0.75;;;0.40;;
25391;SDS011;13329;48.402;11.718;2022-09-21T16:34:17;2.47;;;0.70;;
25391;SDS011;13329;48.402;11.718;2022-09-21T16:36:44;2.50;;;0.50;;
25391;SDS011;13329;48.402;11.718;2022-09-21T16:39:11;0.85;;;0.50;;
25391;SDS011;13329;48.402;11.718;2022-09-21T16:41:38;0.43;;;0.40;;
25391;SDS011;13329;48.402;11.718;2022-09-21T16:44:04;1.48;;;0.60;;
25391;SDS011;13329;48.402;11.718;2022-09-21T16:46:30;0.55;;;0.40;;
25391;SDS011;13329;48.402;11.718;2022-09-21T16:48:59;1.85;;;0.57;;
25391;SDS011;13329;48.402;11.718;2022-09-21T16:51:25;0.85;;;0.60;;
25391;SDS011;13329;48.402;11.718;2022-09-21T16:53:51;1.83;;;0.65;;
25391;SDS011;13329;48.402;11.718;2022-09-21T16:56:16;1.83;;;0.90;;
25391;SDS011;13329;48.402;11.718;2022-09-21T16:58:42;1.23;;;0.75;;
25391;SDS011;13329;48.402;11.718;2022-09-21T17:01:11;0.80;;;0.50;;
25391;SDS011;13329;48.402;11.718;2022-09-21T17:03:37;3.33;;;0.80;;
25391;SDS011;13329;48.402;11.718;2022-09-21T17:06:04;0.95;;;0.60;;
25391;SDS011;13329;48.402;11.718;2022-09-21T17:08:29;0.65;;;0.45;;
25391;SDS011;13329;48.402;11.718;2022-09-21T17:10:56;1.10;;;0.70;;
25391;SDS011;13329;48.402;11.718;2022-09-21T17:13:21;1.38;;;0.60;;
25391;SDS011;13329;48.402;11.718;2022-09-21T17:15:47;1.03;;;0.60;;
25391;SDS011;13329;48.402;11.718;2022-09-21T17:18:12;0.90;;;0.60;;
25391;SDS011;13329;48.402;11.718;2022-09-21T17:20:39;1.63;;;0.50;;
25391;SDS011;13329;48.402;11.718;2022-09-21T17:23:04;0.75;;;0.63;;
25391;SDS011;13329;48.402;11.718;2022-09-21T17:25:30;1.13;;;0.60;;
25391;SDS011;13329;48.402;11.718;2022-09-21T17:27:56;2.13;;;0.60;;
25391;SDS011;13329;48.402;11.718;2022-09-21T17:30:22;1.42;;;0.60;;
25391;SDS011;13329;48.402;11.718;2022-09-21T17:32:48;1.27;;;0.60;;
25391;SDS011;13329;48.402;11.718;2022-09-21T17:37:45;2.45;;;0.70;;
25391;SDS011;13329;48.402;11.718;2022-09-21T17:40:11;1.30;;;0.80;;
25391;SDS011;13329;48.402;11.718;2022-09-21T17:42:39;1.50;;;0.70;;
25391;SDS011;13329;48.402;11.718;2022-09-21T17:47:36;2.50;;;0.93;;
25391;SDS011;13329;48.402;11.718;2022-09-21T17:52:37;2.10;;;0.90;;
25391;SDS011;13329;48.402;11.718;2022-09-21T17:55:21;1.42;;;0.80;;
25391;SDS011;13329;48.402;11.718;2022-09-21T17:57:51;1.65;;;0.80;;
25391;SDS011;13329;48.402;11.718;2022-09-21T18:02:45;0.80;;;0.70;;